sensor_id;sensor_type;location;lat;lon;timestamp;temperature;humidity
6948;DHT22;3513;47.664;9.162;2023-09-19T00:02:16;18.00;99.90
6948;DHT22;3513;47.664;9.162;2023-09-19T00:04:43;18.00;99.90
6948;DHT22;3513;47.664;9.162;2023-09-19T00:07:08;18.00;99.90
6948;DHT22;3513;47.664;9.162;2023-09-19T00:09:34;18.10;99.90
6948;DHT22;3513;47.664;9.162;2023-09-19T00:12:06;18.10;99.90
6948;DHT22;3513;47.664;9.162;2023-09-19T00:14:32;18.20;99.90
6948;DHT22;3513;47.664;9.162;2023-09-19T00:17:01;18.10;99.90
6948;DHT22;3513;47.664;9.162;2023-09-19T00:19:32;18.10;99.90
6948;DHT22;3513;47.664;9.162;2023-09-19T00:21:58;18.10;99.90
6948;DHT22;3513;47.664;9.162;2023-09-19T00:24:24;18.00;99.90
6948;DHT22;3513;47.664;9.162;2023-09-19T00:26:49;18.00;99.90
6948;DHT22;3513;47.664;9.162;2023-09-19T00:29:15;17.90;99.90
6948;DHT22;3513;47.664;9.162;2023-09-19T00:31:44;17.90;99.90
6948;DHT22;3513;47.664;9.162;2023-09-19T00:34:10;17.90;99.90
6948;DHT22;3513;47.664;9.162;2023-09-19T00:36:39;17.90;99.90
6948;DHT22;3513;47.664;9.162;2023-09-19T00:39:06;17.80;99.90
6948;DHT22;3513;47.664;9.162;2023-09-19T00:41:32;17.80;99.90
6948;DHT22;3513;47.664;9.162;2023-09-19T00:44:00;17.80;99.90
6948;DHT22;3513;47.664;9.162;2023-09-19T00:46:27;17.70;99.90
6948;DHT22;3513;47.664;9.162;2023-09-19T00:48:52;17.70;99.90
6948;DHT22;3513;47.664;9.162;2023-09-19T00:51:20;17.70;99.90
6948;DHT22;3513;47.664;9.162;2023-09-19T00:53:47;17.70;99.90
6948;DHT22;3513;47.664;9.162;2023-09-19T00:56:14;17.60;99.90
6948;DHT22;3513;47.664;9.162;2023-09-19T00:58:44;17.50;99.90
6948;DHT22;3513;47.664;9.162;2023-09-19T01:01:10;17.50;99.90
6948;DHT22;3513;47.664;9.162;2023-09-19T01:03:37;17.50;99.90
6948;DHT22;3513;47.664;9.162;2023-09-19T01:06:03;17.60;99.90
6948;DHT22;3513;47.664;9.162;2023-09-19T01:08:29;17.60;99.90
6948;DHT22;3513;47.664;9.162;2023-09-19T01:11:32;17.60;99.90
6948;DHT22;3513;47.664;9.162;2023-09-19T01:19:55;17.90;99.90
6948;DHT22;3513;47.664;9.162;2023-09-19T01:28:14;17.80;99.90
6948;DHT22;3513;47.664;9.162;2023-09-19T01:30:43;17.80;99.90
6948;DHT22;3513;47.664;9.162;2023-09-19T01:33:09;17.80;99.90
6948;DHT22;3513;47.664;9.162;2023-09-19T01:35:38;17.80;99.90
6948;DHT22;3513;47.664;9.162;2023-09-19T01:38:07;17.80;99.90
6948;DHT22;3513;47.664;9.162;2023-09-19T01:40:41;17.80;99.90
6948;DHT22;3513;47.664;9.162;2023-09-19T01:43:17;17.70;99.90
6948;DHT22;3513;47.664;9.162;2023-09-19T01:46:05;17.70;99.90
6948;DHT22;3513;47.664;9.162;2023-09-19T01:48:54;17.60;99.90
6948;DHT22;3513;47.664;9.162;2023-09-19T01:51:56;17.60;99.90
6948;DHT22;3513;47.664;9.162;2023-09-19T01:54:30;17.60;99.90
6948;DHT22;3513;47.664;9.162;2023-09-19T01:57:02;17.80;99.90
6948;DHT22;3513;47.664;9.162;2023-09-19T01:59:41;17.80;99.90
6948;DHT22;3513;47.664;9.162;2023-09-19T02:02:09;17.80;99.90
6948;DHT22;3513;47.664;9.162;2023-09-19T02:04:35;17.60;99.90
6948;DHT22;3513;47.664;9.162;2023-09-19T02:07:00;17.70;99.90
6948;DHT22;3513;47.664;9.162;2023-09-19T02:09:26;17.70;99.90
6948;DHT22;3513;47.664;9.162;2023-09-19T02:11:52;17.60;99.90
6948;DHT22;3513;47.664;9.162;2023-09-19T02:14:17;17.60;99.90
6948;DHT22;3513;47.664;9.162;2023-09-19T02:16:45;17.60;99.90
6948;DHT22;3513;47.664;9.162;2023-09-19T02:19:11;17.60;99.90
6948;DHT22;3513;47.664;9.162;2023-09-19T02:21:36;17.60;99.90
6948;DHT22;3513;47.664;9.162;2023-09-19T02:24:03;17.60;99.90
6948;DHT22;3513;47.664;9.162;2023-09-19T02:26:29;17.50;99.90
6948;DHT22;3513;47.664;9.162;2023-09-19T02:28:54;17.50;99.90
6948;DHT22;3513;47.664;9.162;2023-09-19T02:31:20;17.50;99.90
6948;DHT22;3513;47.664;9.162;2023-09-19T02:33:46;17.50;99.90
6948;DHT22;3513;47.664;9.162;2023-09-19T02:36:11;17.50;99.90
6948;DHT22;3513;47.664;9.162;2023-09-19T02:38:38;17.50;99.90
6948;DHT22;3513;47.664;9.162;2023-09-19T02:41:03;17.50;99.90
6948;DHT22;3513;47.664;9.162;2023-09-19T02:43:29;17.60;99.90
6948;DHT22;3513;47.664;9.162;2023-09-19T02:45:55;17.60;99.90
6948;DHT22;3513;47.664;9.162;2023-09-19T02:48:22;17.50;99.90
6948;DHT22;3513;47.664;9.162;2023-09-19T02:50:51;17.50;99.90
6948;DHT22;3513;47.664;9.162;2023-09-19T02:53:17;17.50;99.90
6948;DHT22;3513;47.664;9.162;2023-09-19T02:55:42;17.50;99.90
6948;DHT22;3513;47.664;9.162;2023-09-19T02:58:08;17.50;99.90
6948;DHT22;3513;47.664;9.162;2023-09-19T03:00:36;17.50;99.90
6948;DHT22;3513;47.664;9.162;2023-09-19T03:03:02;17.60;99.90
6948;DHT22;3513;47.664;9.162;2023-09-19T03:05:28;17.60;99.90
6948;DHT22;3513;47.664;9.162;2023-09-19T03:07:56;17.60;99.90
6948;DHT22;3513;47.664;9.162;2023-09-19T03:10:23;17.60;99.90
6948;DHT22;3513;47.664;9.162;2023-09-19T03:12:50;17.50;99.90
6948;DHT22;3513;47.664;9.162;2023-09-19T03:15:16;17.50;99.90
6948;DHT22;3513;47.664;9.162;2023-09-19T03:17:44;17.60;99.90
6948;DHT22;3513;47.664;9.162;2023-09-19T03:20:10;17.50;99.90
6948;DHT22;3513;47.664;9.162;2023-09-19T03:22:38;17.60;99.90
6948;DHT22;3513;47.664;9.162;2023-09-19T03:25:06;17.60;99.90
6948;DHT22;3513;47.664;9.162;2023-09-19T03:27:36;17.50;99.90
6948;DHT22;3513;47.664;9.162;2023-09-19T03:30:03;17.50;99.90
6948;DHT22;3513;47.664;9.162;2023-09-19T03:32:34;17.50;99.90
6948;DHT22;3513;47.664;9.162;2023-09-19T03:35:00;17.50;99.90
6948;DHT22;3513;47.664;9.162;2023-09-19T03:37:25;17.50;99.90
6948;DHT22;3513;47.664;9.162;2023-09-19T03:39:51;17.40;99.90
6948;DHT22;3513;47.664;9.162;2023-09-19T03:42:17;17.30;99.90
6948;DHT22;3513;47.664;9.162;2023-09-19T03:44:43;17.40;99.90
6948;DHT22;3513;47.664;9.162;2023-09-19T03:47:08;17.30;99.90
6948;DHT22;3513;47.664;9.162;2023-09-19T03:49:34;17.30;99.90
6948;DHT22;3513;47.664;9.162;2023-09-19T03:51:59;17.30;99.90
6948;DHT22;3513;47.664;9.162;2023-09-19T03:54:25;17.30;99.90
6948;DHT22;3513;47.664;9.162;2023-09-19T03:56:50;17.40;99.90
6948;DHT22;3513;47.664;9.162;2023-09-19T03:59:16;17.30;99.90
6948;DHT22;3513;47.664;9.162;2023-09-19T04:01:43;17.30;99.90
6948;DHT22;3513;47.664;9.162;2023-09-19T04:04:09;17.30;99.90
6948;DHT22;3513;47.664;9.162;2023-09-19T04:06:35;17.20;99.90
6948;DHT22;3513;47.664;9.162;2023-09-19T04:09:01;17.10;99.90
6948;DHT22;3513;47.664;9.162;2023-09-19T04:11:29;17.00;99.90
6948;DHT22;3513;47.664;9.162;2023-09-19T04:13:54;17.00;99.90
6948;DHT22;3513;47.664;9.162;2023-09-19T04:16:20;17.00;99.90
6948;DHT22;3513;47.664;9.162;2023-09-19T04:18:45;17.00;99.90
6948;DHT22;3513;47.664;9.162;2023-09-19T04:21:11;16.90;99.90
6948;DHT22;3513;47.664;9.162;2023-09-19T04:23:37;16.90;99.90
6948;DHT22;3513;47.664;9.162;2023-09-19T04:26:02;17.00;99.90
6948;DHT22;3513;47.664;9.162;2023-09-19T04:28:31;17.00;99.90
6948;DHT22;3513;47.664;9.162;2023-09-19T04:30:59;17.00;99.90
6948;DHT22;3513;47.664;9.162;2023-09-19T04:33:26;17.10;99.90
6948;DHT22;3513;47.664;9.162;2023-09-19T04:35:54;17.10;99.90
6948;DHT22;3513;47.664;9.162;2023-09-19T04:38:20;17.00;99.90
6948;DHT22;3513;47.664;9.162;2023-09-19T04:40:46;17.10;99.90
6948;DHT22;3513;47.664;9.162;2023-09-19T04:43:12;17.00;99.90
6948;DHT22;3513;47.664;9.162;2023-09-19T04:45:38;17.00;99.90
6948;DHT22;3513;47.664;9.162;2023-09-19T04:48:04;17.00;99.90
6948;DHT22;3513;47.664;9.162;2023-09-19T04:50:32;17.00;99.90
6948;DHT22;3513;47.664;9.162;2023-09-19T04:53:00;17.10;99.90
6948;DHT22;3513;47.664;9.162;2023-09-19T04:55:26;17.20;99.90
6948;DHT22;3513;47.664;9.162;2023-09-19T04:57:52;17.20;99.90
6948;DHT22;3513;47.664;9.162;2023-09-19T05:00:20;17.20;99.90
6948;DHT22;3513;47.664;9.162;2023-09-19T05:02:50;17.20;99.90
6948;DHT22;3513;47.664;9.162;2023-09-19T05:05:16;17.20;99.90
6948;DHT22;3513;47.664;9.162;2023-09-19T05:07:42;17.20;99.90
6948;DHT22;3513;47.664;9.162;2023-09-19T05:10:09;17.20;99.90
6948;DHT22;3513;47.664;9.162;2023-09-19T05:12:35;17.10;99.90
6948;DHT22;3513;47.664;9.162;2023-09-19T05:15:05;17.00;99.90
6948;DHT22;3513;47.664;9.162;2023-09-19T05:17:32;17.00;99.90
6948;DHT22;3513;47.664;9.162;2023-09-19T05:19:58;17.00;99.90
6948;DHT22;3513;47.664;9.162;2023-09-19T05:22:26;16.90;99.90
6948;DHT22;3513;47.664;9.162;2023-09-19T05:24:52;17.00;99.90
6948;DHT22;3513;47.664;9.162;2023-09-19T05:27:18;17.00;99.90
6948;DHT22;3513;47.664;9.162;2023-09-19T05:29:46;17.00;99.90
6948;DHT22;3513;47.664;9.162;2023-09-19T05:32:12;17.00;99.90
6948;DHT22;3513;47.664;9.162;2023-09-19T05:34:38;17.00;99.90
6948;DHT22;3513;47.664;9.162;2023-09-19T05:37:04;17.10;99.90
6948;DHT22;3513;47.664;9.162;2023-09-19T05:39:33;17.00;99.90
6948;DHT22;3513;47.664;9.162;2023-09-19T05:41:59;17.00;99.90
6948;DHT22;3513;47.664;9.162;2023-09-19T05:44:26;17.00;99.90
6948;DHT22;3513;47.664;9.162;2023-09-19T05:46:51;17.20;99.90
6948;DHT22;3513;47.664;9.162;2023-09-19T05:49:17;17.10;99.90
6948;DHT22;3513;47.664;9.162;2023-09-19T05:51:42;17.20;99.90
6948;DHT22;3513;47.664;9.162;2023-09-19T05:54:08;17.10;99.90
6948;DHT22;3513;47.664;9.162;2023-09-19T05:56:34;17.10;99.90
6948;DHT22;3513;47.664;9.162;2023-09-19T05:59:00;17.20;99.90
6948;DHT22;3513;47.664;9.162;2023-09-19T06:01:25;17.20;99.90
6948;DHT22;3513;47.664;9.162;2023-09-19T06:03:51;17.20;99.90
6948;DHT22;3513;47.664;9.162;2023-09-19T06:06:18;17.20;99.90
6948;DHT22;3513;47.664;9.162;2023-09-19T06:08:44;17.20;99.90
6948;DHT22;3513;47.664;9.162;2023-09-19T06:11:10;17.20;99.90
6948;DHT22;3513;47.664;9.162;2023-09-19T06:13:36;17.20;99.90
6948;DHT22;3513;47.664;9.162;2023-09-19T06:16:03;17.20;99.90
6948;DHT22;3513;47.664;9.162;2023-09-19T06:18:31;17.30;99.90
6948;DHT22;3513;47.664;9.162;2023-09-19T06:20:59;17.40;99.90
6948;DHT22;3513;47.664;9.162;2023-09-19T06:23:25;17.30;99.90
6948;DHT22;3513;47.664;9.162;2023-09-19T06:25:52;17.40;99.90
6948;DHT22;3513;47.664;9.162;2023-09-19T06:28:19;17.40;99.90
6948;DHT22;3513;47.664;9.162;2023-09-19T06:30:49;17.30;99.90
6948;DHT22;3513;47.664;9.162;2023-09-19T06:33:15;17.30;99.90
6948;DHT22;3513;47.664;9.162;2023-09-19T06:35:40;17.30;99.90
6948;DHT22;3513;47.664;9.162;2023-09-19T06:38:07;17.30;99.90
6948;DHT22;3513;47.664;9.162;2023-09-19T06:40:34;17.40;99.90
6948;DHT22;3513;47.664;9.162;2023-09-19T06:43:00;17.60;99.90
6948;DHT22;3513;47.664;9.162;2023-09-19T06:45:27;17.60;99.90
6948;DHT22;3513;47.664;9.162;2023-09-19T06:47:53;17.60;99.90
6948;DHT22;3513;47.664;9.162;2023-09-19T06:50:23;17.60;99.90
6948;DHT22;3513;47.664;9.162;2023-09-19T06:52:50;17.70;99.90
6948;DHT22;3513;47.664;9.162;2023-09-19T06:55:17;17.70;99.90
6948;DHT22;3513;47.664;9.162;2023-09-19T06:57:44;17.70;99.90
6948;DHT22;3513;47.664;9.162;2023-09-19T07:00:11;17.70;99.90
6948;DHT22;3513;47.664;9.162;2023-09-19T07:03:07;17.70;99.90
6948;DHT22;3513;47.664;9.162;2023-09-19T07:05:39;17.70;99.90
6948;DHT22;3513;47.664;9.162;2023-09-19T07:08:09;17.80;99.90
6948;DHT22;3513;47.664;9.162;2023-09-19T07:10:36;17.80;99.90
6948;DHT22;3513;47.664;9.162;2023-09-19T07:13:06;17.90;99.90
6948;DHT22;3513;47.664;9.162;2023-09-19T07:15:34;18.00;99.90
6948;DHT22;3513;47.664;9.162;2023-09-19T07:18:06;18.00;99.90
6948;DHT22;3513;47.664;9.162;2023-09-19T07:20:32;18.00;99.90
6948;DHT22;3513;47.664;9.162;2023-09-19T07:22:58;18.00;99.90
6948;DHT22;3513;47.664;9.162;2023-09-19T07:25:27;17.90;99.90
6948;DHT22;3513;47.664;9.162;2023-09-19T07:27:55;18.00;99.90
6948;DHT22;3513;47.664;9.162;2023-09-19T07:30:21;18.00;99.90
6948;DHT22;3513;47.664;9.162;2023-09-19T07:32:47;18.10;99.90
6948;DHT22;3513;47.664;9.162;2023-09-19T07:35:13;18.10;99.90
6948;DHT22;3513;47.664;9.162;2023-09-19T07:37:40;18.20;99.70
6948;DHT22;3513;47.664;9.162;2023-09-19T07:40:06;18.20;99.50
6948;DHT22;3513;47.664;9.162;2023-09-19T07:42:33;18.30;99.10
6948;DHT22;3513;47.664;9.162;2023-09-19T07:45:01;18.30;99.40
6948;DHT22;3513;47.664;9.162;2023-09-19T07:47:26;18.40;98.60
6948;DHT22;3513;47.664;9.162;2023-09-19T07:49:53;18.40;98.40
6948;DHT22;3513;47.664;9.162;2023-09-19T07:52:20;18.50;98.80
6948;DHT22;3513;47.664;9.162;2023-09-19T07:54:47;18.50;98.80
6948;DHT22;3513;47.664;9.162;2023-09-19T07:57:15;18.60;98.50
6948;DHT22;3513;47.664;9.162;2023-09-19T07:59:41;18.70;97.90
6948;DHT22;3513;47.664;9.162;2023-09-19T08:02:08;18.70;98.00
6948;DHT22;3513;47.664;9.162;2023-09-19T08:04:35;18.80;97.30
6948;DHT22;3513;47.664;9.162;2023-09-19T08:07:01;18.80;97.80
6948;DHT22;3513;47.664;9.162;2023-09-19T08:09:29;18.80;97.50
6948;DHT22;3513;47.664;9.162;2023-09-19T08:11:58;18.80;97.00
6948;DHT22;3513;47.664;9.162;2023-09-19T08:14:29;18.90;97.20
6948;DHT22;3513;47.664;9.162;2023-09-19T08:16:58;19.00;97.50
6948;DHT22;3513;47.664;9.162;2023-09-19T08:19:24;19.10;97.10
6948;DHT22;3513;47.664;9.162;2023-09-19T08:21:57;19.20;96.90
6948;DHT22;3513;47.664;9.162;2023-09-19T08:24:25;19.40;96.50
6948;DHT22;3513;47.664;9.162;2023-09-19T08:26:52;19.50;96.00
6948;DHT22;3513;47.664;9.162;2023-09-19T08:29:20;19.50;95.80
6948;DHT22;3513;47.664;9.162;2023-09-19T08:31:45;19.50;95.30
6948;DHT22;3513;47.664;9.162;2023-09-19T08:34:13;19.50;94.60
6948;DHT22;3513;47.664;9.162;2023-09-19T08:36:38;19.30;94.50
6948;DHT22;3513;47.664;9.162;2023-09-19T08:39:06;19.30;94.90
6948;DHT22;3513;47.664;9.162;2023-09-19T08:41:32;19.30;95.30
6948;DHT22;3513;47.664;9.162;2023-09-19T08:44:01;19.30;94.80
6948;DHT22;3513;47.664;9.162;2023-09-19T08:46:30;19.40;95.10
6948;DHT22;3513;47.664;9.162;2023-09-19T08:49:04;19.50;95.20
6948;DHT22;3513;47.664;9.162;2023-09-19T08:51:42;19.70;93.90
6948;DHT22;3513;47.664;9.162;2023-09-19T08:54:25;19.70;93.50
6948;DHT22;3513;47.664;9.162;2023-09-19T08:56:55;19.70;93.00
6948;DHT22;3513;47.664;9.162;2023-09-19T08:59:22;19.70;93.10
6948;DHT22;3513;47.664;9.162;2023-09-19T09:01:53;19.80;93.50
6948;DHT22;3513;47.664;9.162;2023-09-19T09:04:20;19.90;94.00
6948;DHT22;3513;47.664;9.162;2023-09-19T09:06:48;19.90;93.10
6948;DHT22;3513;47.664;9.162;2023-09-19T09:09:19;19.90;93.30
6948;DHT22;3513;47.664;9.162;2023-09-19T09:11:45;20.00;93.50
6948;DHT22;3513;47.664;9.162;2023-09-19T09:14:13;20.10;92.70
6948;DHT22;3513;47.664;9.162;2023-09-19T09:16:39;20.10;92.70
6948;DHT22;3513;47.664;9.162;2023-09-19T09:19:05;20.20;92.70
6948;DHT22;3513;47.664;9.162;2023-09-19T09:21:31;20.30;92.10
6948;DHT22;3513;47.664;9.162;2023-09-19T09:24:27;20.30;91.90
6948;DHT22;3513;47.664;9.162;2023-09-19T09:27:00;20.20;91.80
6948;DHT22;3513;47.664;9.162;2023-09-19T09:29:44;20.10;91.50
6948;DHT22;3513;47.664;9.162;2023-09-19T09:32:27;20.10;91.40
6948;DHT22;3513;47.664;9.162;2023-09-19T09:34:59;20.00;91.90
6948;DHT22;3513;47.664;9.162;2023-09-19T09:37:29;20.00;92.40
6948;DHT22;3513;47.664;9.162;2023-09-19T09:39:56;20.10;92.70
6948;DHT22;3513;47.664;9.162;2023-09-19T09:42:36;20.30;91.90
6948;DHT22;3513;47.664;9.162;2023-09-19T09:45:24;20.30;90.80
6948;DHT22;3513;47.664;9.162;2023-09-19T09:47:59;20.20;91.70
6948;DHT22;3513;47.664;9.162;2023-09-19T09:50:38;20.20;91.70
6948;DHT22;3513;47.664;9.162;2023-09-19T09:53:27;20.20;91.50
6948;DHT22;3513;47.664;9.162;2023-09-19T09:55:59;20.20;92.00
6948;DHT22;3513;47.664;9.162;2023-09-19T09:58:26;20.20;91.40
6948;DHT22;3513;47.664;9.162;2023-09-19T10:00:58;20.30;91.20
6948;DHT22;3513;47.664;9.162;2023-09-19T10:03:43;20.30;91.40
6948;DHT22;3513;47.664;9.162;2023-09-19T10:06:14;20.30;92.00
6948;DHT22;3513;47.664;9.162;2023-09-19T10:09:17;20.50;91.30
6948;DHT22;3513;47.664;9.162;2023-09-19T10:12:06;20.40;91.30
6948;DHT22;3513;47.664;9.162;2023-09-19T10:14:37;20.40;90.90
6948;DHT22;3513;47.664;9.162;2023-09-19T10:17:05;20.40;91.30
6948;DHT22;3513;47.664;9.162;2023-09-19T10:19:37;20.30;91.60
6948;DHT22;3513;47.664;9.162;2023-09-19T10:22:13;20.30;91.90
6948;DHT22;3513;47.664;9.162;2023-09-19T10:24:47;20.10;91.40
6948;DHT22;3513;47.664;9.162;2023-09-19T10:27:19;20.10;91.90
6948;DHT22;3513;47.664;9.162;2023-09-19T10:29:49;20.10;92.50
6948;DHT22;3513;47.664;9.162;2023-09-19T10:32:21;20.20;92.50
6948;DHT22;3513;47.664;9.162;2023-09-19T10:34:47;20.30;92.40
6948;DHT22;3513;47.664;9.162;2023-09-19T10:37:16;20.30;93.10
6948;DHT22;3513;47.664;9.162;2023-09-19T10:39:46;20.40;92.90
6948;DHT22;3513;47.664;9.162;2023-09-19T10:42:16;20.50;93.00
6948;DHT22;3513;47.664;9.162;2023-09-19T10:44:45;20.70;92.20
6948;DHT22;3513;47.664;9.162;2023-09-19T10:47:15;20.90;91.50
6948;DHT22;3513;47.664;9.162;2023-09-19T10:49:45;21.00;91.00
6948;DHT22;3513;47.664;9.162;2023-09-19T10:52:20;20.90;90.90
6948;DHT22;3513;47.664;9.162;2023-09-19T10:54:52;21.00;90.70
6948;DHT22;3513;47.664;9.162;2023-09-19T10:57:23;21.00;91.20
6948;DHT22;3513;47.664;9.162;2023-09-19T11:00:07;21.10;91.40
6948;DHT22;3513;47.664;9.162;2023-09-19T11:05:37;21.40;90.40
6948;DHT22;3513;47.664;9.162;2023-09-19T11:08:07;21.50;91.10
6948;DHT22;3513;47.664;9.162;2023-09-19T11:10:50;21.60;90.50
6948;DHT22;3513;47.664;9.162;2023-09-19T11:13:31;21.80;90.70
6948;DHT22;3513;47.664;9.162;2023-09-19T11:18:58;22.20;89.10
6948;DHT22;3513;47.664;9.162;2023-09-19T11:27:12;21.90;88.00
6948;DHT22;3513;47.664;9.162;2023-09-19T11:29:39;21.80;85.00
6948;DHT22;3513;47.664;9.162;2023-09-19T11:32:16;21.70;84.80
6948;DHT22;3513;47.664;9.162;2023-09-19T11:34:48;21.60;86.10
6948;DHT22;3513;47.664;9.162;2023-09-19T11:40:27;21.90;86.30
6948;DHT22;3513;47.664;9.162;2023-09-19T11:42:56;22.00;86.90
6948;DHT22;3513;47.664;9.162;2023-09-19T11:46:01;22.00;85.20
6948;DHT22;3513;47.664;9.162;2023-09-19T11:48:44;22.10;86.00
6948;DHT22;3513;47.664;9.162;2023-09-19T11:51:37;22.10;85.60
6948;DHT22;3513;47.664;9.162;2023-09-19T11:54:27;22.00;83.80
6948;DHT22;3513;47.664;9.162;2023-09-19T11:57:08;22.10;86.90
6948;DHT22;3513;47.664;9.162;2023-09-19T11:59:41;22.40;85.30
6948;DHT22;3513;47.664;9.162;2023-09-19T12:02:10;22.40;83.10
6948;DHT22;3513;47.664;9.162;2023-09-19T12:04:44;22.70;82.80
6948;DHT22;3513;47.664;9.162;2023-09-19T12:07:24;22.80;83.20
6948;DHT22;3513;47.664;9.162;2023-09-19T12:10:07;22.90;81.70
6948;DHT22;3513;47.664;9.162;2023-09-19T12:12:47;22.70;80.40
6948;DHT22;3513;47.664;9.162;2023-09-19T12:15:14;22.50;81.20
6948;DHT22;3513;47.664;9.162;2023-09-19T12:17:46;22.40;80.60
6948;DHT22;3513;47.664;9.162;2023-09-19T12:20:13;22.50;83.20
6948;DHT22;3513;47.664;9.162;2023-09-19T12:22:48;22.70;82.80
6948;DHT22;3513;47.664;9.162;2023-09-19T12:25:18;22.80;79.90
6948;DHT22;3513;47.664;9.162;2023-09-19T12:27:50;22.90;79.60
6948;DHT22;3513;47.664;9.162;2023-09-19T12:30:45;22.90;80.90
6948;DHT22;3513;47.664;9.162;2023-09-19T12:33:19;23.10;80.90
6948;DHT22;3513;47.664;9.162;2023-09-19T12:35:51;23.30;81.00
6948;DHT22;3513;47.664;9.162;2023-09-19T12:38:29;23.50;80.20
6948;DHT22;3513;47.664;9.162;2023-09-19T12:40:59;23.60;75.70
6948;DHT22;3513;47.664;9.162;2023-09-19T12:43:25;23.60;76.50
6948;DHT22;3513;47.664;9.162;2023-09-19T12:46:19;23.70;76.60
6948;DHT22;3513;47.664;9.162;2023-09-19T12:49:19;23.80;75.90
6948;DHT22;3513;47.664;9.162;2023-09-19T12:52:00;24.10;76.20
6948;DHT22;3513;47.664;9.162;2023-09-19T12:54:42;23.60;74.70
6948;DHT22;3513;47.664;9.162;2023-09-19T12:57:26;23.60;74.90
6948;DHT22;3513;47.664;9.162;2023-09-19T12:59:52;23.70;75.20
6948;DHT22;3513;47.664;9.162;2023-09-19T13:02:18;23.90;74.30
6948;DHT22;3513;47.664;9.162;2023-09-19T13:04:54;24.00;75.80
6948;DHT22;3513;47.664;9.162;2023-09-19T13:07:41;24.40;74.00
6948;DHT22;3513;47.664;9.162;2023-09-19T13:10:11;24.90;73.30
6948;DHT22;3513;47.664;9.162;2023-09-19T13:12:43;25.10;70.50
6948;DHT22;3513;47.664;9.162;2023-09-19T13:15:16;25.30;71.20
6948;DHT22;3513;47.664;9.162;2023-09-19T13:17:48;25.10;68.50
6948;DHT22;3513;47.664;9.162;2023-09-19T13:20:29;24.90;69.20
6948;DHT22;3513;47.664;9.162;2023-09-19T13:22:57;24.60;71.50
6948;DHT22;3513;47.664;9.162;2023-09-19T13:28:33;25.00;71.40
6948;DHT22;3513;47.664;9.162;2023-09-19T13:31:09;25.40;67.20
6948;DHT22;3513;47.664;9.162;2023-09-19T13:33:43;25.10;67.20
6948;DHT22;3513;47.664;9.162;2023-09-19T13:36:12;25.40;67.60
6948;DHT22;3513;47.664;9.162;2023-09-19T13:38:41;26.00;66.30
6948;DHT22;3513;47.664;9.162;2023-09-19T13:41:37;26.40;66.00
6948;DHT22;3513;47.664;9.162;2023-09-19T13:44:05;26.70;62.00
6948;DHT22;3513;47.664;9.162;2023-09-19T13:46:38;27.10;61.40
6948;DHT22;3513;47.664;9.162;2023-09-19T13:49:13;27.20;58.50
6948;DHT22;3513;47.664;9.162;2023-09-19T13:51:46;27.30;59.20
6948;DHT22;3513;47.664;9.162;2023-09-19T13:54:20;27.50;59.40
6948;DHT22;3513;47.664;9.162;2023-09-19T13:56:46;27.40;57.80
6948;DHT22;3513;47.664;9.162;2023-09-19T13:59:15;27.30;58.60
6948;DHT22;3513;47.664;9.162;2023-09-19T14:01:54;27.10;60.80
6948;DHT22;3513;47.664;9.162;2023-09-19T14:04:21;27.20;59.00
6948;DHT22;3513;47.664;9.162;2023-09-19T14:13:21;28.30;56.70
6948;DHT22;3513;47.664;9.162;2023-09-19T14:16:09;28.50;54.30
6948;DHT22;3513;47.664;9.162;2023-09-19T14:18:35;28.50;54.70
6948;DHT22;3513;47.664;9.162;2023-09-19T14:21:07;28.40;54.10
6948;DHT22;3513;47.664;9.162;2023-09-19T14:23:44;28.40;54.30
6948;DHT22;3513;47.664;9.162;2023-09-19T14:26:11;28.40;53.90
6948;DHT22;3513;47.664;9.162;2023-09-19T14:28:37;28.60;53.00
6948;DHT22;3513;47.664;9.162;2023-09-19T14:34:27;30.10;51.90
6948;DHT22;3513;47.664;9.162;2023-09-19T14:40:14;31.40;50.10
6948;DHT22;3513;47.664;9.162;2023-09-19T14:42:58;31.30;47.30
6948;DHT22;3513;47.664;9.162;2023-09-19T14:45:46;32.40;44.80
6948;DHT22;3513;47.664;9.162;2023-09-19T14:48:14;32.10;44.10
6948;DHT22;3513;47.664;9.162;2023-09-19T14:58:14;30.80;46.50
6948;DHT22;3513;47.664;9.162;2023-09-19T15:00:40;31.30;46.30
6948;DHT22;3513;47.664;9.162;2023-09-19T15:03:10;31.50;45.90
6948;DHT22;3513;47.664;9.162;2023-09-19T15:05:40;31.70;45.60
6948;DHT22;3513;47.664;9.162;2023-09-19T15:08:19;32.20;44.80
6948;DHT22;3513;47.664;9.162;2023-09-19T15:10:50;32.40;42.80
6948;DHT22;3513;47.664;9.162;2023-09-19T15:16:37;32.50;42.30
6948;DHT22;3513;47.664;9.162;2023-09-19T15:19:16;32.20;43.00
6948;DHT22;3513;47.664;9.162;2023-09-19T15:21:43;31.70;43.20
6948;DHT22;3513;47.664;9.162;2023-09-19T15:24:15;31.60;44.10
6948;DHT22;3513;47.664;9.162;2023-09-19T15:26:44;31.70;43.10
6948;DHT22;3513;47.664;9.162;2023-09-19T15:29:11;31.60;43.20
6948;DHT22;3513;47.664;9.162;2023-09-19T15:31:38;31.60;43.90
6948;DHT22;3513;47.664;9.162;2023-09-19T15:34:05;31.70;43.40
6948;DHT22;3513;47.664;9.162;2023-09-19T15:36:46;31.90;42.80
6948;DHT22;3513;47.664;9.162;2023-09-19T15:39:39;31.90;42.00
6948;DHT22;3513;47.664;9.162;2023-09-19T15:42:05;31.50;43.50
6948;DHT22;3513;47.664;9.162;2023-09-19T15:44:32;31.00;43.70
6948;DHT22;3513;47.664;9.162;2023-09-19T15:47:00;30.60;44.40
6948;DHT22;3513;47.664;9.162;2023-09-19T15:49:29;30.40;45.00
6948;DHT22;3513;47.664;9.162;2023-09-19T15:52:12;30.20;46.20
6948;DHT22;3513;47.664;9.162;2023-09-19T15:54:41;30.00;46.40
6948;DHT22;3513;47.664;9.162;2023-09-19T15:57:20;29.60;46.50
6948;DHT22;3513;47.664;9.162;2023-09-19T15:59:46;29.50;47.30
6948;DHT22;3513;47.664;9.162;2023-09-19T16:02:12;29.60;48.10
6948;DHT22;3513;47.664;9.162;2023-09-19T16:04:41;29.70;47.10
6948;DHT22;3513;47.664;9.162;2023-09-19T16:07:16;29.90;47.10
6948;DHT22;3513;47.664;9.162;2023-09-19T16:10:02;29.60;47.20
6948;DHT22;3513;47.664;9.162;2023-09-19T16:12:39;29.70;47.70
6948;DHT22;3513;47.664;9.162;2023-09-19T16:15:13;29.50;47.60
6948;DHT22;3513;47.664;9.162;2023-09-19T16:17:50;29.50;48.80
6948;DHT22;3513;47.664;9.162;2023-09-19T16:20:15;29.60;48.30
6948;DHT22;3513;47.664;9.162;2023-09-19T16:22:51;29.80;48.10
6948;DHT22;3513;47.664;9.162;2023-09-19T16:28:58;30.50;46.30
6948;DHT22;3513;47.664;9.162;2023-09-19T16:31:55;30.60;46.50
6948;DHT22;3513;47.664;9.162;2023-09-19T16:34:29;30.80;46.10
6948;DHT22;3513;47.664;9.162;2023-09-19T16:40:14;31.20;44.90
6948;DHT22;3513;47.664;9.162;2023-09-19T16:42:40;31.10;45.10
6948;DHT22;3513;47.664;9.162;2023-09-19T16:45:10;30.80;45.80
6948;DHT22;3513;47.664;9.162;2023-09-19T16:47:51;30.70;46.40
6948;DHT22;3513;47.664;9.162;2023-09-19T16:53:42;31.00;46.10
6948;DHT22;3513;47.664;9.162;2023-09-19T16:56:12;30.60;46.00
6948;DHT22;3513;47.664;9.162;2023-09-19T16:58:41;30.20;47.30
6948;DHT22;3513;47.664;9.162;2023-09-19T17:01:08;29.50;48.40
6948;DHT22;3513;47.664;9.162;2023-09-19T17:03:37;28.80;50.10
6948;DHT22;3513;47.664;9.162;2023-09-19T17:06:12;27.90;51.40
6948;DHT22;3513;47.664;9.162;2023-09-19T17:08:41;27.10;53.70
6948;DHT22;3513;47.664;9.162;2023-09-19T17:11:08;26.30;55.70
6948;DHT22;3513;47.664;9.162;2023-09-19T17:13:41;25.80;57.80
6948;DHT22;3513;47.664;9.162;2023-09-19T17:16:11;25.40;59.30
6948;DHT22;3513;47.664;9.162;2023-09-19T17:18:38;25.00;59.60
6948;DHT22;3513;47.664;9.162;2023-09-19T17:21:06;24.60;61.50
6948;DHT22;3513;47.664;9.162;2023-09-19T17:23:33;24.20;63.00
6948;DHT22;3513;47.664;9.162;2023-09-19T17:26:18;23.80;64.60
6948;DHT22;3513;47.664;9.162;2023-09-19T17:28:46;23.50;66.50